Terminal Aerodrome Forecast
Issued by NWS Austin/San Antonio, TX

Home | Current Version | Previous Version | Text Only | Print | Product List | Glossary On
Versions: 1 2 3 4 5 6 7 8 9 10 11 12 13 14 15 16 17 18 19 20 21 22 23
000
FTUS44 KEWX 182326
TAFAUS
TAF
KAUS 182326Z 1900/2006 16010KT P6SM SCT025 BKN250
     FM190500 17011KT P6SM OVC007
     FM190700 18009KT 2SM -DZ BR OVC004
     FM191500 18012KT P6SM BKN007
     FM191800 18016KT P6SM BKN015
     FM192300 17015KT P6SM BKN040
     FM200300 16011KT 5SM BR OVC004=

USA.gov is the U.S. government's official web portal to all federal, state and local government web resources and services.